Time;durP1;ratioP1;P1;durP2;ratioP2;P2;SDS_P1;SDS_P2;PMS_P1;PMS_P2;Temp;Humidity;BMP_temperature;BMP_pressure;BME280_temperature;BME280_humidity;BME280_pressure;Samples;Min_cycle;Max_cycle;Signal;HPM_P1;HPM_P2
2023/09/04 00:00:43;;;;;;;8.77;6.87;;;;;;;-141.97;95.69;47430.66;5031863;28;20178;-79
2023/09/04 00:03:09;;;;;;;8.30;6.90;;;;;;;-141.97;95.13;47442.19;5031363;28;20189;-79
2023/09/04 00:05:34;;;;;;;9.50;7.00;;;;;;;-141.97;94.92;47461.41;5030998;28;20524;-79
2023/09/04 00:08:00;;;;;;;9.80;7.10;;;;;;;-141.97;94.59;47469.09;5030982;28;20154;-79
2023/09/04 00:10:26;;;;;;;9.60;7.03;;;;;;;-141.97;94.00;47497.94;5030718;28;20178;-79
2023/09/04 00:12:51;;;;;;;11.13;7.40;;;;;;;-141.97;94.16;47434.50;5031023;28;20288;-79
2023/09/04 00:15:16;;;;;;;10.40;7.27;;;;;;;-141.97;94.42;47444.13;5030751;28;20178;-79
2023/09/04 00:17:42;;;;;;;10.07;7.17;;;;;;;-141.97;95.02;47403.75;5030808;28;20312;-80
2023/09/04 00:20:08;;;;;;;8.23;6.50;;;;;;;-141.97;94.45;47434.50;5030581;28;20178;-79
2023/09/04 00:22:34;;;;;;;8.23;7.13;;;;;;;-141.97;94.47;47463.34;5029228;28;20612;-79
2023/09/04 00:24:59;;;;;;;10.70;7.03;;;;;;;-141.97;94.61;47457.56;5030536;28;20197;-80
2023/09/04 00:27:26;;;;;;;10.07;8.17;;;;;;;-141.97;94.75;47463.34;5029451;28;20174;-79
2023/09/04 00:29:51;;;;;;;10.30;7.87;;;;;;;-141.97;95.62;47453.72;5029566;28;20172;-80
2023/09/04 00:32:17;;;;;;;11.13;8.10;;;;;;;-141.97;96.26;47474.88;5030420;28;20229;-80
2023/09/04 00:34:42;;;;;;;10.57;7.93;;;;;;;-141.97;97.34;47488.31;5030294;28;20701;-78
2023/09/04 00:37:09;;;;;;;11.80;9.20;;;;;;;-141.97;97.16;47461.41;5020513;28;20201;-78
2023/09/04 00:39:35;;;;;;;12.23;9.00;;;;;;;-141.97;97.14;47436.44;5029144;28;20507;-78
2023/09/04 00:42:01;;;;;;;11.07;8.70;;;;;;;-141.97;96.04;47449.88;5029912;28;20291;-79
2023/09/04 00:44:26;;;;;;;10.33;8.10;;;;;;;-141.97;95.29;47472.94;5030253;28;20170;-78
2023/09/04 00:46:51;;;;;;;11.80;8.07;;;;;;;-141.97;95.99;47480.63;5030117;28;20676;-78
2023/09/04 00:49:18;;;;;;;11.17;8.13;;;;;;;-141.97;96.75;47446.03;5030110;28;20162;-78
2023/09/04 00:51:44;;;;;;;11.80;8.20;;;;;;;-141.97;96.20;47449.88;5030391;28;20166;-78
2023/09/04 00:54:10;;;;;;;11.50;8.10;;;;;;;-141.97;95.80;47469.09;5029987;28;20174;-80
2023/09/04 00:56:36;;;;;;;11.07;8.70;;;;;;;-141.97;96.02;47484.47;5029709;28;20642;-80
2023/09/04 00:59:01;;;;;;;11.60;8.27;;;;;;;-141.97;97.17;47478.72;5029316;28;20293;-79
2023/09/04 01:01:28;;;;;;;12.80;8.93;;;;;;;-141.97;98.78;47449.88;5030437;28;20162;-80
2023/09/04 01:03:53;;;;;;;11.57;8.93;;;;;;;-141.97;99.87;47594.03;5030395;28;20170;-79
2023/09/04 01:06:19;;;;;;;12.90;9.90;;;;;;;-141.97;99.33;47465.25;5030308;28;20166;-79
2023/09/04 01:08:44;;;;;;;10.43;8.60;;;;;;;-141.97;97.85;47476.78;5029765;28;20178;-79
2023/09/04 01:11:38;;;;;;;12.37;9.50;;;;;;;-141.97;96.42;47449.88;5029923;28;20169;-79
2023/09/04 01:14:15;;;;;;;13.10;9.23;;;;;;;-141.97;96.67;47480.63;5028628;28;20240;-80
2023/09/04 01:16:41;;;;;;;12.27;9.53;;;;;;;-141.97;95.79;47472.94;5030057;28;20178;-80
2023/09/04 01:19:10;;;;;;;10.03;8.27;;;;;;;-141.97;91.74;47415.28;5029863;28;20174;-80
2023/09/04 01:21:39;;;;;;;10.23;8.27;;;;;;;-141.97;91.00;47455.66;5030019;28;20216;-79
2023/09/04 01:24:08;;;;;;;11.37;8.80;;;;;;;-141.97;90.78;47471.03;5016761;28;20183;-80
2023/09/04 01:26:43;;;;;;;10.70;8.60;;;;;;;-141.97;90.33;47453.72;5010426;28;20159;-79
2023/09/04 01:29:24;;;;;;;10.50;8.43;;;;;;;-141.97;90.15;47451.81;5029143;28;20177;-80
2023/09/04 01:32:36;;;;;;;11.07;8.40;;;;;;;-141.97;89.78;47436.44;5030053;28;20358;-79
2023/09/04 01:35:03;;;;;;;10.23;8.40;;;;;;;-141.97;89.93;47442.19;4949551;29;20188;-79
2023/09/04 01:37:30;;;;;;;10.57;8.23;;;;;;;-141.97;89.89;47461.41;4940523;28;20291;-80
2023/09/04 01:39:56;;;;;;;13.50;8.90;;;;;;;-141.97;89.83;47482.56;4949629;29;20235;-79
2023/09/04 01:42:21;;;;;;;10.20;8.50;;;;;;;-141.97;89.59;47469.09;4951357;29;20314;-79
2023/09/04 01:44:46;;;;;;;10.47;8.70;;;;;;;-141.97;89.04;47501.78;4949978;29;20231;-79
2023/09/04 01:47:12;;;;;;;10.70;8.40;;;;;;;-141.97;88.51;47605.56;4949384;28;20175;-80
2023/09/04 01:49:37;;;;;;;10.23;8.50;;;;;;;-141.97;87.44;47469.09;4949462;29;20469;-79
2023/09/04 01:52:03;;;;;;;9.90;8.23;;;;;;;-141.97;87.04;47451.81;4949543;29;20314;-79
2023/09/04 01:54:29;;;;;;;11.17;8.43;;;;;;;-141.97;86.56;47451.81;4949460;29;20169;-78
2023/09/04 01:56:54;;;;;;;9.50;8.50;;;;;;;-141.97;86.00;47484.47;4948987;28;20728;-79
2023/09/04 01:59:20;;;;;;;10.80;8.43;;;;;;;-141.97;86.83;47472.94;4951841;28;20653;-78
2023/09/04 02:01:46;;;;;;;11.43;8.10;;;;;;;-141.97;87.35;47424.91;4952751;29;20260;-78
2023/09/04 02:04:11;;;;;;;11.87;8.47;;;;;;;-141.97;87.84;47478.72;4952751;29;20180;-77
2023/09/04 02:06:36;;;;;;;11.07;8.43;;;;;;;-141.97;86.80;47465.25;4936590;29;20176;-79
2023/09/04 02:09:04;;;;;;;10.87;8.43;;;;;;;-141.97;86.81;47484.47;4936311;29;20700;-78
2023/09/04 02:11:29;;;;;;;11.73;8.37;;;;;;;-141.97;86.41;47501.78;4975556;28;20209;-79
2023/09/04 02:13:55;;;;;;;10.67;8.67;;;;;;;-141.97;87.04;47442.19;5013108;28;20189;-78
2023/09/04 02:16:22;;;;;;;9.80;7.90;;;;;;;-141.97;85.94;47503.69;5013063;28;20225;-78
2023/09/04 02:18:47;;;;;;;8.80;7.00;;;;;;;-141.97;83.20;47484.47;5027377;28;20174;-78
2023/09/04 02:21:13;;;;;;;8.63;6.90;;;;;;;-141.97;82.96;47442.19;5033658;28;20600;-78
2023/09/04 02:23:38;;;;;;;8.23;6.70;;;;;;;-141.97;82.11;47488.31;5035068;28;20179;-78
2023/09/04 02:26:04;;;;;;;8.73;6.47;;;;;;;-141.97;81.12;47467.19;5033760;28;20241;-78
2023/09/04 02:28:30;;;;;;;7.00;6.13;;;;;;;-141.97;79.99;47382.63;5033471;28;20613;-78
2023/09/04 02:30:55;;;;;;;7.57;6.10;;;;;;;-141.97;79.51;47472.94;5033538;28;20548;-78
2023/09/04 02:33:21;;;;;;;8.50;5.80;;;;;;;-141.97;79.39;47490.25;5033363;28;20226;-78
2023/09/04 02:35:47;;;;;;;6.53;5.80;;;;;;;-141.97;78.83;47484.47;5033124;28;20189;-79
2023/09/04 02:38:13;;;;;;;7.20;5.90;;;;;;;-141.97;78.33;47497.94;5024097;28;20283;-79
2023/09/04 02:40:38;;;;;;;7.60;5.80;;;;;;;-141.97;78.23;47484.47;5033379;28;20227;-79
2023/09/04 02:43:03;;;;;;;7.20;5.93;;;;;;;-141.97;77.86;47517.16;5033282;28;20316;-79
2023/09/04 02:45:29;;;;;;;7.30;5.17;;;;;;;-141.97;77.40;47453.72;5033666;28;20182;-79
2023/09/04 02:47:54;;;;;;;6.23;5.13;;;;;;;-141.97;77.01;47465.25;5032786;28;20178;-78
2023/09/04 02:50:20;;;;;;;7.07;5.70;;;;;;;-141.97;76.95;47422.97;5033344;28;20245;-79
2023/09/04 02:52:45;;;;;;;7.20;5.50;;;;;;;-141.97;76.72;47444.13;5033121;28;20159;-79
2023/09/04 02:55:12;;;;;;;7.80;5.30;;;;;;;-141.97;76.57;47446.03;5033145;28;20174;-79
2023/09/04 02:57:37;;;;;;;6.17;5.23;;;;;;;-141.97;75.73;47474.88;5032205;28;20634;-78
2023/09/04 03:00:06;;;;;;;6.40;5.37;;;;;;;-141.97;76.15;47488.31;5032587;28;20162;-78
2023/09/04 03:02:35;;;;;;;5.07;4.53;;;;;;;-141.97;75.44;47442.19;5035175;28;20234;-79
2023/09/04 03:05:00;;;;;;;5.70;5.00;;;;;;;-141.97;75.08;47472.94;5039735;28;20209;-78
2023/09/04 03:07:26;;;;;;;6.93;5.33;;;;;;;-141.97;74.74;47457.56;5034395;28;20190;-78
2023/09/04 03:09:56;;;;;;;5.87;4.77;;;;;;;-141.97;74.78;47455.66;5032760;28;20166;-78
2023/09/04 03:12:23;;;;;;;5.43;4.87;;;;;;;-141.97;75.21;47449.88;5031574;28;20235;-79
2023/09/04 03:14:54;;;;;;;5.50;4.90;;;;;;;-141.97;74.93;47447.97;5032097;28;20533;-78
2023/09/04 03:17:19;;;;;;;5.40;4.77;;;;;;;-141.97;74.43;47499.84;5030409;28;20293;-78
2023/09/04 03:19:45;;;;;;;7.40;4.83;;;;;;;-141.97;74.95;47474.88;5031860;28;20300;-78
2023/09/04 03:22:10;;;;;;;7.77;5.07;;;;;;;-141.97;74.59;47480.63;5032357;28;20177;-78
2023/09/04 03:24:35;;;;;;;5.90;4.97;;;;;;;-141.97;73.98;47442.19;5033023;28;20670;-78
2023/09/04 03:27:01;;;;;;;7.13;5.13;;;;;;;-141.97;74.33;47449.88;5049488;28;20209;-78
2023/09/04 03:29:26;;;;;;;6.33;5.20;;;;;;;-141.97;74.05;47461.41;5051290;28;20178;-78
2023/09/04 03:31:51;;;;;;;5.73;5.00;;;;;;;-141.97;74.14;47480.63;5031692;28;20208;-78
2023/09/04 03:34:18;;;;;;;7.10;5.30;;;;;;;-141.97;73.91;47486.41;5031717;28;20228;-78
2023/09/04 03:36:45;;;;;;;5.70;5.00;;;;;;;-141.97;74.79;47488.31;5031446;28;20317;-78
2023/09/04 03:39:10;;;;;;;5.57;4.97;;;;;;;-141.97;73.65;47413.38;5021897;28;20241;-78
2023/09/04 03:41:36;;;;;;;6.20;5.10;;;;;;;-141.97;74.51;47446.03;5031233;28;20173;-78
2023/09/04 03:44:01;;;;;;;8.10;5.17;;;;;;;-141.97;73.77;47484.47;5031693;28;20179;-78
2023/09/04 03:46:27;;;;;;;6.27;5.00;;;;;;;-141.97;74.42;47497.94;5031716;28;20192;-78
2023/09/04 03:48:53;;;;;;;8.77;5.17;;;;;;;-141.97;73.85;47428.75;5031103;28;20189;-78
2023/09/04 03:51:18;;;;;;;5.50;4.97;;;;;;;-141.97;73.65;47476.78;5030294;28;20281;-78
2023/09/04 03:53:43;;;;;;;7.60;5.30;;;;;;;-141.97;74.04;47449.88;5031258;28;20166;-77
2023/09/04 03:56:09;;;;;;;5.93;5.27;;;;;;;-141.97;74.10;47424.91;5031043;28;20634;-77
2023/09/04 03:58:35;;;;;;;6.20;5.20;;;;;;;-141.97;73.92;47474.88;5031406;28;20178;-78
2023/09/04 04:01:00;;;;;;;7.10;5.40;;;;;;;-141.97;73.98;47449.88;5031014;28;20158;-77
2023/09/04 04:03:26;;;;;;;6.93;5.00;;;;;;;-141.97;73.94;47467.19;5031002;28;20590;-78
2023/09/04 04:05:51;;;;;;;6.67;5.27;;;;;;;-141.97;74.84;47463.34;5030891;28;20237;-77
2023/09/04 04:08:16;;;;;;;6.67;5.30;;;;;;;-141.97;76.75;47472.94;5031043;28;20505;-78
2023/09/04 04:10:44;;;;;;;5.97;5.30;;;;;;;-141.97;79.38;47480.63;5031272;28;20582;-78
2023/09/04 04:13:09;;;;;;;6.90;5.70;;;;;;;-141.97;81.34;47478.72;5030400;28;20184;-78
2023/09/04 04:15:35;;;;;;;8.80;5.60;;;;;;;-141.97;84.09;47505.63;5030830;28;20198;-77
2023/09/04 04:18:00;;;;;;;8.17;5.47;;;;;;;-141.97;85.82;47449.88;5030573;28;20281;-77
2023/09/04 04:20:26;;;;;;;6.20;5.13;;;;;;;-141.97;87.64;47484.47;5030146;28;20247;-78
2023/09/04 04:22:51;;;;;;;7.83;6.13;;;;;;;-141.97;90.69;47503.69;5030302;28;20206;-79
2023/09/04 04:25:16;;;;;;;8.57;6.57;;;;;;;-141.97;92.99;47488.31;5030557;28;20692;-79
2023/09/04 04:27:44;;;;;;;14.47;6.57;;;;;;;-141.97;95.85;47505.63;5030560;28;20175;-78
2023/09/04 04:30:09;;;;;;;16.40;7.90;;;;;;;-141.97;98.89;47499.84;5030687;28;20158;-79
2023/09/04 04:32:35;;;;;;;13.53;8.33;;;;;;;-141.97;100.00;47499.84;5030039;28;20255;-79
2023/09/04 04:35:00;;;;;;;14.20;9.00;;;;;;;-141.97;100.00;47507.53;5030669;28;20252;-79
2023/09/04 04:37:26;;;;;;;13.47;8.20;;;;;;;-141.97;100.00;47488.31;5030739;28;20262;-79
2023/09/04 04:39:52;;;;;;;12.77;8.23;;;;;;;-141.97;100.00;47469.09;5021347;28;20237;-79
2023/09/04 04:42:17;;;;;;;17.63;8.53;;;;;;;-141.97;100.00;47507.53;5030162;28;20678;-81
2023/09/04 04:44:43;;;;;;;14.57;8.50;;;;;;;-141.97;100.00;47530.59;5040156;28;20169;-79
2023/09/04 04:47:08;;;;;;;12.93;8.73;;;;;;;-141.97;100.00;47503.69;5051338;28;20264;-80
2023/09/04 04:49:33;;;;;;;14.20;9.03;;;;;;;-141.97;100.00;47540.22;5037670;28;20539;-78
2023/09/04 04:51:59;;;;;;;13.47;8.30;;;;;;;-141.97;100.00;47526.75;5033538;28;20239;-79
2023/09/04 04:54:24;;;;;;;12.03;8.40;;;;;;;-141.97;100.00;47499.84;5030844;28;20593;-78
2023/09/04 04:56:50;;;;;;;14.23;8.80;;;;;;;-141.97;100.00;47572.91;5029830;28;20759;-79
2023/09/04 04:59:16;;;;;;;12.00;8.30;;;;;;;-141.97;100.00;47442.19;5031928;28;20531;-79
2023/09/04 05:01:42;;;;;;;10.60;7.37;;;;;;;-141.97;100.00;47499.84;5031079;28;20231;-79
2023/09/04 05:04:07;;;;;;;13.67;8.83;;;;;;;-141.97;100.00;47522.91;5030857;28;20166;-82
2023/09/04 05:06:33;;;;;;;14.87;8.80;;;;;;;-141.97;100.00;47536.38;5031052;28;20245;-79
2023/09/04 05:08:58;;;;;;;16.03;9.63;;;;;;;-141.97;100.00;47513.31;5030508;28;20611;-80
2023/09/04 05:11:24;;;;;;;11.13;8.70;;;;;;;-141.97;100.00;47505.63;5030039;28;20170;-80
2023/09/04 05:13:49;;;;;;;10.23;7.47;;;;;;;-141.97;100.00;47546.00;5029359;28;20822;-80
2023/09/04 05:16:14;;;;;;;11.83;8.50;;;;;;;-141.97;100.00;47517.16;5030726;28;20190;-81
2023/09/04 05:18:40;;;;;;;11.90;8.47;;;;;;;-141.97;100.00;47513.31;5030456;28;20170;-79
2023/09/04 05:21:06;;;;;;;13.10;9.33;;;;;;;-141.97;100.00;47563.28;5030428;28;20158;-78
2023/09/04 05:23:32;;;;;;;12.17;8.97;;;;;;;-141.97;100.00;47522.91;5028686;28;20544;-79
2023/09/04 05:25:58;;;;;;;12.83;8.57;;;;;;;-141.97;100.00;47547.91;5028803;28;20197;-79
2023/09/04 05:28:23;;;;;;;11.23;8.43;;;;;;;-141.97;100.00;47526.75;5030005;28;20647;-80
2023/09/04 05:30:49;;;;;;;12.20;8.30;;;;;;;-141.97;100.00;47561.38;5030135;28;20165;-80
2023/09/04 05:33:14;;;;;;;13.83;8.70;;;;;;;-141.97;100.00;47640.16;5032941;28;20170;-80
2023/09/04 05:35:40;;;;;;;12.53;8.47;;;;;;;-141.97;100.00;47499.84;5033769;28;20205;-80
2023/09/04 05:38:06;;;;;;;11.93;8.30;;;;;;;-141.97;100.00;47526.75;5024346;28;20290;-79
2023/09/04 05:40:31;;;;;;;13.77;9.33;;;;;;;-141.97;100.00;47576.75;5033831;28;20636;-80
2023/09/04 05:42:57;;;;;;;11.93;9.10;;;;;;;-141.97;100.00;47511.38;5033133;28;20762;-79
2023/09/04 05:45:23;;;;;;;15.13;9.83;;;;;;;-141.97;100.00;47542.16;5033841;28;20173;-80
2023/09/04 05:47:49;;;;;;;13.97;9.77;;;;;;;-141.97;100.00;47513.31;5033630;28;20197;-80
2023/09/04 05:50:15;;;;;;;14.03;9.77;;;;;;;-141.97;100.00;47519.06;5034066;28;20165;-80
2023/09/04 05:52:40;;;;;;;12.83;9.37;;;;;;;-141.97;100.00;47642.09;5033714;28;20178;-80
2023/09/04 05:55:06;;;;;;;11.57;8.77;;;;;;;-141.97;100.00;47542.16;5032527;28;20173;-80
2023/09/04 05:57:32;;;;;;;12.13;9.03;;;;;;;-141.97;100.00;47530.59;5017306;28;20925;-80
2023/09/04 05:59:58;;;;;;;12.90;9.87;;;;;;;-141.97;100.00;47524.84;5013885;28;20167;-80
2023/09/04 06:02:23;;;;;;;16.73;9.87;;;;;;;-141.97;100.00;47549.84;5021135;28;20170;-80
2023/09/04 06:04:49;;;;;;;13.37;9.03;;;;;;;-141.97;98.98;47559.44;5033199;28;20173;-79
2023/09/04 06:07:15;;;;;;;14.63;9.20;;;;;;;-141.97;98.75;47496.00;5032858;28;20247;-79
2023/09/04 06:09:42;;;;;;;14.60;9.53;;;;;;;-141.97;98.14;47522.91;5032485;28;20174;-79
2023/09/04 06:12:11;;;;;;;17.47;10.03;;;;;;;-141.97;98.31;47526.75;5032899;28;20198;-81
2023/09/04 06:14:37;;;;;;;13.33;9.17;;;;;;;-141.97;99.15;47517.16;5032956;28;20169;-81
2023/09/04 06:17:03;;;;;;;12.30;9.23;;;;;;;-141.97;98.49;47522.91;5033380;28;20193;-80
2023/09/04 06:19:28;;;;;;;14.53;10.23;;;;;;;-141.97;99.47;47536.38;5032743;28;20756;-80
2023/09/04 06:21:54;;;;;;;14.97;10.70;;;;;;;-141.97;98.80;47526.75;5032596;28;20185;-82
2023/09/04 06:24:20;;;;;;;15.40;10.23;;;;;;;-141.97;99.82;47503.69;5032612;28;20174;-81
2023/09/04 06:26:45;;;;;;;18.70;10.93;;;;;;;-141.97;100.00;47536.38;5032627;28;20158;-80
2023/09/04 06:29:11;;;;;;;15.67;10.80;;;;;;;-141.97;99.25;47522.91;5032744;28;20639;-80
2023/09/04 06:31:36;;;;;;;16.03;11.27;;;;;;;-141.97;99.57;47542.16;5032389;28;20174;-80
2023/09/04 06:34:03;;;;;;;9.67;7.90;;;;;;;-141.97;96.91;47542.16;5032583;28;20180;-80
2023/09/04 06:36:29;;;;;;;11.07;7.93;;;;;;;-141.97;96.36;47507.53;5030949;28;20670;-82
2023/09/04 06:38:54;;;;;;;10.20;7.87;;;;;;;-141.97;95.30;47530.59;5022012;28;20264;-80
2023/09/04 06:41:21;;;;;;;11.70;8.70;;;;;;;-141.97;95.51;47511.38;5032121;28;20201;-80
2023/09/04 06:43:47;;;;;;;14.20;8.30;;;;;;;-141.97;94.35;47540.22;5030126;28;20233;-80
2023/09/04 06:46:13;;;;;;;9.33;7.63;;;;;;;-141.97;95.01;47553.69;5032254;28;20162;-81
2023/09/04 06:48:39;;;;;;;11.17;8.03;;;;;;;-141.97;96.08;47519.06;5032542;28;20162;-80
2023/09/04 06:51:05;;;;;;;10.80;8.00;;;;;;;-141.97;96.58;47532.53;5031096;28;20270;-79
2023/09/04 06:53:30;;;;;;;11.60;9.03;;;;;;;-141.97;96.24;47497.94;5032067;28;20166;-80
2023/09/04 06:55:56;;;;;;;13.20;9.37;;;;;;;-141.97;96.27;47553.69;5032029;28;20247;-81
2023/09/04 06:58:22;;;;;;;9.97;7.87;;;;;;;-141.97;96.21;47538.28;5031948;28;20162;-79
2023/09/04 07:00:47;;;;;;;10.00;7.80;;;;;;;-141.97;95.39;47540.22;5032138;28;20164;-78
2023/09/04 07:03:13;;;;;;;15.13;10.37;;;;;;;-141.97;94.88;47511.38;5032558;28;20178;-78
2023/09/04 07:05:38;;;;;;;11.80;9.20;;;;;;;-141.97;94.16;47542.16;5036310;28;20220;-79
2023/09/04 07:08:04;;;;;;;14.63;12.00;;;;;;;-141.97;93.37;47497.94;5053340;28;20182;-80
2023/09/04 07:10:30;;;;;;;11.47;9.40;;;;;;;-141.97;91.91;47515.22;5042200;28;20212;-80
2023/09/04 07:12:56;;;;;;;12.93;9.50;;;;;;;-141.97;91.89;47488.31;5031483;28;20634;-79
2023/09/04 07:15:21;;;;;;;11.27;8.23;;;;;;;-141.97;90.00;47578.66;5031671;28;20228;-79
2023/09/04 07:17:47;;;;;;;12.57;9.20;;;;;;;-141.97;88.68;47486.41;5031818;28;20166;-79
2023/09/04 07:20:13;;;;;;;10.63;8.33;;;;;;;-141.97;88.64;47478.72;5031585;28;20673;-80
2023/09/04 07:22:39;;;;;;;12.03;10.17;;;;;;;-141.97;88.78;47492.16;5031120;28;20205;-80
2023/09/04 07:25:05;;;;;;;9.73;8.07;;;;;;;-141.97;88.46;47519.06;5031228;28;20230;-81
2023/09/04 07:27:31;;;;;;;10.63;8.20;;;;;;;-141.97;88.16;47513.31;5031448;28;20197;-79
2023/09/04 07:29:56;;;;;;;11.00;7.77;;;;;;;-141.97;86.84;47534.44;5031595;28;20545;-80
2023/09/04 07:32:22;;;;;;;9.67;7.63;;;;;;;-141.97;85.53;47505.63;5032151;28;20174;-79
2023/09/04 07:34:47;;;;;;;11.57;8.80;;;;;;;-141.97;86.30;47465.25;5033802;28;20176;-79
2023/09/04 07:37:12;;;;;;;10.37;7.33;;;;;;;-141.97;85.92;47513.31;5033096;28;20225;-79
2023/09/04 07:39:39;;;;;;;9.97;7.97;;;;;;;-141.97;86.24;47496.00;5022822;28;20322;-80
2023/09/04 07:42:05;;;;;;;12.87;9.30;;;;;;;-141.97;88.19;47519.06;5039156;28;20699;-79
2023/09/04 07:44:31;;;;;;;10.13;8.37;;;;;;;-141.97;88.05;47521.00;5051469;28;20234;-81
2023/09/04 07:46:57;;;;;;;12.20;8.77;;;;;;;-141.97;87.43;47499.84;5051885;28;20154;-79
2023/09/04 07:49:23;;;;;;;10.83;8.73;;;;;;;-141.97;88.21;47522.91;5052015;28;20227;-80
2023/09/04 07:51:48;;;;;;;11.63;9.17;;;;;;;-141.97;89.15;47497.94;5051919;28;20246;-80
2023/09/04 07:54:13;;;;;;;9.43;8.10;;;;;;;-141.97;87.62;47524.84;5056476;28;20189;-81
2023/09/04 07:56:39;;;;;;;8.73;6.50;;;;;;;-141.97;83.01;47511.38;5072968;28;20185;-80
2023/09/04 07:59:05;;;;;;;9.90;7.50;;;;;;;-141.97;84.34;47499.84;5064986;28;20722;-80
2023/09/04 08:01:32;;;;;;;9.73;6.70;;;;;;;-141.97;83.92;47488.31;5060256;28;20169;-79
2023/09/04 08:03:57;;;;;;;10.57;6.30;;;;;;;-141.97;83.28;47499.84;5055405;28;20178;-80
2023/09/04 08:06:23;;;;;;;9.40;6.70;;;;;;;-141.97;84.49;47519.06;5052180;28;20232;-79
2023/09/04 08:08:48;;;;;;;7.70;6.27;;;;;;;-141.97;83.58;47522.91;5050582;28;20264;-79
2023/09/04 08:11:14;;;;;;;7.67;5.60;;;;;;;-141.97;81.76;47540.22;5050501;28;20252;-79
2023/09/04 08:13:39;;;;;;;6.63;5.67;;;;;;;-141.97;82.08;47524.84;5050438;28;20238;-79
2023/09/04 08:16:05;;;;;;;6.40;5.20;;;;;;;-141.97;81.95;47471.03;5051032;28;20185;-79
2023/09/04 08:18:30;;;;;;;6.97;5.93;;;;;;;-141.97;84.36;47519.06;5050769;28;20268;-79
2023/09/04 08:20:55;;;;;;;6.80;5.80;;;;;;;-141.97;85.52;47511.38;5050882;28;20577;-80
2023/09/04 08:23:21;;;;;;;8.37;6.70;;;;;;;-141.97;89.87;47519.06;5050848;28;20169;-79
2023/09/04 08:25:46;;;;;;;13.03;7.27;;;;;;;-141.97;91.55;47503.69;5051250;28;20157;-80
2023/09/04 08:28:11;;;;;;;13.37;7.70;;;;;;;-141.97;91.81;47526.75;5050362;28;20264;-80
2023/09/04 08:30:37;;;;;;;8.40;6.80;;;;;;;-141.97;90.72;47540.22;5050569;28;20173;-81
2023/09/04 08:33:03;;;;;;;9.30;7.10;;;;;;;-141.97;91.75;47519.06;5035458;28;20170;-80
2023/09/04 08:35:29;;;;;;;9.53;6.33;;;;;;;-141.97;89.94;47521.00;5030705;28;20193;-79
2023/09/04 08:37:56;;;;;;;9.50;6.70;;;;;;;-141.97;89.98;47494.09;5030210;28;20169;-80
2023/09/04 08:40:22;;;;;;;8.67;6.20;;;;;;;-141.97;90.89;47546.00;5021013;28;20708;-80
2023/09/04 08:42:49;;;;;;;11.07;6.23;;;;;;;-141.97;90.47;47567.13;5030328;28;20226;-80
2023/09/04 08:45:18;;;;;;;9.10;6.93;;;;;;;-141.97;91.20;47549.84;5028960;28;20174;-80
2023/09/04 08:47:44;;;;;;;10.53;7.53;;;;;;;-141.97;91.35;47503.69;5029833;28;20170;-79
2023/09/04 08:50:11;;;;;;;7.80;5.77;;;;;;;-141.97;88.04;47559.44;5029710;28;20196;-80
2023/09/04 08:52:38;;;;;;;9.90;6.33;;;;;;;-141.97;90.56;47557.53;5029195;28;20170;-79
2023/09/04 08:55:05;;;;;;;9.33;7.10;;;;;;;-141.97;93.34;47530.59;5028889;28;20181;-80
2023/09/04 08:57:31;;;;;;;9.87;6.87;;;;;;;-141.97;94.07;47561.38;5029723;28;20733;-80
2023/09/04 08:59:56;;;;;;;10.60;6.70;;;;;;;-141.97;91.69;47553.69;5030360;28;20170;-81
2023/09/04 09:02:22;;;;;;;11.70;6.80;;;;;;;-141.97;93.11;47521.00;5030307;28;20174;-79
2023/09/04 09:04:48;;;;;;;12.87;6.67;;;;;;;-141.97;92.31;47536.38;5029999;28;20630;-79
2023/09/04 09:07:14;;;;;;;10.33;6.70;;;;;;;-141.97;93.05;47549.84;5031415;28;20299;-83
2023/09/04 09:09:44;;;;;;;12.23;7.63;;;;;;;-141.97;93.18;47551.75;5033974;28;20611;-82
2023/09/04 09:12:09;;;;;;;9.90;6.70;;;;;;;-141.97;93.64;47569.06;5033811;28;20162;-82
2023/09/04 09:14:35;;;;;;;11.17;7.10;;;;;;;-141.97;94.34;47559.44;5034190;28;20656;-80
2023/09/04 09:17:08;;;;;;;8.37;6.90;;;;;;;-141.97;93.72;47561.38;5033894;28;20209;-79
2023/09/04 09:19:35;;;;;;;11.63;7.17;;;;;;;-141.97;94.41;47567.13;5034053;28;20170;-80
2023/09/04 09:22:14;;;;;;;10.23;7.40;;;;;;;-141.97;94.17;47524.84;5034761;28;20240;-80
2023/09/04 09:24:53;;;;;;;9.63;7.70;;;;;;;-141.97;95.40;47553.69;5033774;28;20285;-81
2023/09/04 09:27:21;;;;;;;8.77;6.80;;;;;;;-141.97;94.82;47584.44;5033353;28;20545;-80
2023/09/04 09:29:47;;;;;;;11.43;7.93;;;;;;;-141.97;95.82;47576.75;5033959;28;20172;-80
2023/09/04 09:32:15;;;;;;;11.93;7.70;;;;;;;-141.97;95.80;47563.28;5037084;28;20174;-80
2023/09/04 09:34:40;;;;;;;11.67;8.17;;;;;;;-141.97;95.54;47542.16;5035242;28;20166;-81
2023/09/04 09:37:08;;;;;;;12.97;8.13;;;;;;;-141.97;96.62;47551.75;5034616;28;20670;-81
2023/09/04 09:39:34;;;;;;;10.63;8.17;;;;;;;-141.97;95.67;47561.38;5024552;28;20582;-80
2023/09/04 09:42:01;;;;;;;10.20;7.80;;;;;;;-141.97;94.86;47547.91;5032805;28;20399;-81
2023/09/04 09:44:30;;;;;;;10.07;7.80;;;;;;;-141.97;94.96;47567.13;5032958;28;20166;-81
2023/09/04 09:46:56;;;;;;;9.97;8.00;;;;;;;-141.97;93.44;47511.38;5033207;28;20162;-80
2023/09/04 09:49:21;;;;;;;9.70;8.30;;;;;;;-141.97;93.70;47542.16;5033171;28;20173;-82
2023/09/04 09:51:51;;;;;;;13.13;9.13;;;;;;;-141.97;94.55;47561.38;5033236;28;20174;-81
2023/09/04 09:54:33;;;;;;;10.70;9.07;;;;;;;-141.97;96.19;47549.84;5033206;28;20241;-81
2023/09/04 09:56:59;;;;;;;11.83;9.50;;;;;;;-141.97;96.32;47542.16;5032747;28;20339;-80
2023/09/04 09:59:28;;;;;;;11.47;9.33;;;;;;;-141.97;96.90;47588.28;5032871;28;20309;-80
2023/09/04 10:01:54;;;;;;;11.33;8.97;;;;;;;-141.97;97.56;47592.13;5033131;28;20166;-80
2023/09/04 10:04:21;;;;;;;12.07;9.07;;;;;;;-141.97;98.28;47569.06;5032623;28;20181;-81
2023/09/04 10:06:49;;;;;;;12.10;9.13;;;;;;;-141.97;98.49;47569.06;5033618;28;20571;-81
2023/09/04 10:09:19;;;;;;;11.73;8.77;;;;;;;-141.97;98.43;47536.38;5049460;28;20176;-81
2023/09/04 10:11:49;;;;;;;11.90;8.67;;;;;;;-141.97;98.38;47532.53;5050336;28;20165;-79
2023/09/04 10:14:27;;;;;;;11.87;9.30;;;;;;;-141.97;98.05;47572.91;5037831;28;20174;-80
2023/09/04 10:16:58;;;;;;;11.97;9.10;;;;;;;-141.97;98.19;47559.44;5033741;28;20236;-81
2023/09/04 10:19:32;;;;;;;13.53;9.87;;;;;;;-141.97;98.55;47595.97;5031050;28;20174;-80
2023/09/04 10:22:06;;;;;;;12.07;9.23;;;;;;;-141.97;98.46;47557.53;5033588;28;20165;-81
2023/09/04 10:24:44;;;;;;;15.13;11.10;;;;;;;-141.97;98.90;47546.00;5031427;28;20166;-81
2023/09/04 10:27:11;;;;;;;14.93;11.07;;;;;;;-141.97;98.75;47567.13;5032427;28;20162;-81
2023/09/04 10:30:00;;;;;;;16.30;10.90;;;;;;;-141.97;97.18;47557.53;5024122;28;20243;-80
2023/09/04 10:32:28;;;;;;;13.17;9.80;;;;;;;-141.97;96.15;47572.91;5022648;28;20170;-80
2023/09/04 10:34:54;;;;;;;13.33;11.00;;;;;;;-141.97;95.22;47578.66;5032374;28;20166;-79
2023/09/04 10:37:20;;;;;;;16.97;10.50;;;;;;;-141.97;94.29;47586.34;5031890;28;20190;-81
2023/09/04 10:39:47;;;;;;;22.87;13.00;;;;;;;-141.97;93.31;47580.59;5020773;28;20233;-81
2023/09/04 10:42:13;;;;;;;24.00;13.27;;;;;;;-141.97;92.71;47549.84;5031509;28;20226;-80
2023/09/04 10:44:48;;;;;;;16.60;9.90;;;;;;;-141.97;91.75;47584.44;5032438;28;20150;-81
2023/09/04 10:47:15;;;;;;;34.27;16.87;;;;;;;-141.97;92.29;47555.59;5032762;28;20158;-79
2023/09/04 10:49:44;;;;;;;17.07;10.90;;;;;;;-141.97;92.05;47580.59;5032987;28;20618;-82
2023/09/04 10:52:10;;;;;;;14.73;9.80;;;;;;;-141.97;91.66;47567.13;5047436;28;20185;-79
2023/09/04 10:54:36;;;;;;;12.07;8.80;;;;;;;-141.97;92.85;47595.97;5050069;28;20165;-80
2023/09/04 10:57:07;;;;;;;13.80;9.20;;;;;;;-141.97;94.42;47572.91;5031703;28;20658;-81
2023/09/04 10:59:56;;;;;;;13.00;9.13;;;;;;;-141.97;94.87;47584.44;5031695;28;20636;-79
2023/09/04 11:02:25;;;;;;;11.73;9.37;;;;;;;-141.97;96.52;47547.91;4990140;28;20199;-80
2023/09/04 11:04:53;;;;;;;14.57;9.53;;;;;;;-141.97;97.22;47565.22;4990035;28;20202;-80
2023/09/04 11:07:21;;;;;;;13.40;10.10;;;;;;;-141.97;98.34;47565.22;4990130;28;20244;-80